Bennett, CO

7:12 PM MST on December 07, 2016 (GMT -0700)
Front Range | | Change Station

Elev 5512 ft 39.79 °N, 104.54 °W | Updated 15 minutes ago

Mostly Cloudy
Mostly Cloudy
3 °F
Feels Like -4 °F
N
4
Wind Variable Wind from WNW

Today
High -- | Low -- °F
--% Chance of Precip.
Yesterday
High -- | Low -- °F
Precip. -- in
Pressure 30.34 in
Visibility 10.0 miles
Clouds Scattered Clouds 2200 ft
Mostly Cloudy 6000 ft
Windchill -4 °F
Dew Point 0 °F
Humidity 85%
Rainfall 0.00 in
Snow Depth Not available.
7:06 AM 4:33 PM
First Quarter, 58% visible
METAR KFTG 080157Z 30003KT 10SM SCT022 BKN060 M16/M18 A3034
Pressure 30.34 in
Visibility 10.0 miles
Clouds Scattered Clouds 2200 ft
Mostly Cloudy 6000 ft
Windchill -4 °F
Dew Point 0 °F
Humidity 85%
Rainfall 0.00 in
Snow Depth Not available.
7:06 AM 4:33 PM
First Quarter, 58% visible
METAR KFTG 080157Z 30003KT 10SM SCT022 BKN060 M16/M18 A3034

10-Day Weather Forecast

Almanac

Astronomy

Dec. 07, 2016 Rise Set
Actual Time
Civil Twilight
Nautical Twilight
Astronomical Twilight
Moon
Length of Visible Light
Length of Day
Tomorrow will be .
, % of the Moon is Illuminated

Today's Extremes

State Highs State Lows

Community

WunderPhotos

Upload Photos

1,956,259 photos uploaded!

WunderBlog® & News

Nearby

Air Quality

  Air Quality AQ Index Pollutant
Not available.

Snow Depth

Station Depth Elevation

Earthquake Activity

City Distance Mag. Time & Date
Minimum magnitude displayed is 2.5.

Coastal Water Temperatures

Place Temperature

Stations

Nearby Weather Stations

Station Location Temp. Windchill Dew Point Humidity Wind Precip. Elev Updated Type
                   

Watches & Warnings

There are currently no watches in effect.